sensor_id;sensor_type;location;lat;lon;timestamp;P1;durP1;ratioP1;P2;durP2;ratioP2
69381;SDS011;56560;50.692;12.844;2023-04-22T00:00:42;17.35;;;7.07;;
69381;SDS011;56560;50.692;12.844;2023-04-22T00:03:07;16.88;;;6.80;;
69381;SDS011;56560;50.692;12.844;2023-04-22T00:05:33;16.25;;;6.80;;
69381;SDS011;56560;50.692;12.844;2023-04-22T00:07:59;18.13;;;7.03;;
69381;SDS011;56560;50.692;12.844;2023-04-22T00:10:26;16.30;;;6.93;;
69381;SDS011;56560;50.692;12.844;2023-04-22T00:12:51;18.98;;;7.05;;
69381;SDS011;56560;50.692;12.844;2023-04-22T00:15:17;13.70;;;6.43;;
69381;SDS011;56560;50.692;12.844;2023-04-22T00:17:45;14.15;;;7.10;;
69381;SDS011;56560;50.692;12.844;2023-04-22T00:20:12;14.98;;;6.93;;
69381;SDS011;56560;50.692;12.844;2023-04-22T00:22:39;13.80;;;6.60;;
69381;SDS011;56560;50.692;12.844;2023-04-22T00:25:05;18.85;;;7.63;;
69381;SDS011;56560;50.692;12.844;2023-04-22T00:27:31;17.23;;;7.60;;
69381;SDS011;56560;50.692;12.844;2023-04-22T00:29:56;22.57;;;7.47;;
69381;SDS011;56560;50.692;12.844;2023-04-22T00:32:22;16.80;;;7.50;;
69381;SDS011;56560;50.692;12.844;2023-04-22T00:34:47;15.82;;;7.18;;
69381;SDS011;56560;50.692;12.844;2023-04-22T00:37:13;17.60;;;7.03;;
69381;SDS011;56560;50.692;12.844;2023-04-22T00:39:39;18.55;;;7.00;;
69381;SDS011;56560;50.692;12.844;2023-04-22T00:42:05;16.70;;;7.27;;
69381;SDS011;56560;50.692;12.844;2023-04-22T00:44:31;15.85;;;7.78;;
69381;SDS011;56560;50.692;12.844;2023-04-22T00:46:58;18.83;;;7.68;;
69381;SDS011;56560;50.692;12.844;2023-04-22T00:49:25;19.38;;;7.65;;
69381;SDS011;56560;50.692;12.844;2023-04-22T00:51:51;14.02;;;6.60;;
69381;SDS011;56560;50.692;12.844;2023-04-22T00:54:18;19.23;;;7.57;;
69381;SDS011;56560;50.692;12.844;2023-04-22T00:56:43;19.08;;;7.90;;
69381;SDS011;56560;50.692;12.844;2023-04-22T00:59:10;18.67;;;7.53;;
69381;SDS011;56560;50.692;12.844;2023-04-22T01:01:35;17.43;;;7.10;;
69381;SDS011;56560;50.692;12.844;2023-04-22T01:04:02;17.95;;;8.13;;
69381;SDS011;56560;50.692;12.844;2023-04-22T01:06:28;17.40;;;7.63;;
69381;SDS011;56560;50.692;12.844;2023-04-22T01:08:56;16.83;;;7.38;;
69381;SDS011;56560;50.692;12.844;2023-04-22T01:11:23;18.38;;;7.68;;
69381;SDS011;56560;50.692;12.844;2023-04-22T01:13:49;21.27;;;7.43;;
69381;SDS011;56560;50.692;12.844;2023-04-22T01:16:15;15.40;;;7.22;;
69381;SDS011;56560;50.692;12.844;2023-04-22T01:18:41;15.80;;;7.13;;
69381;SDS011;56560;50.692;12.844;2023-04-22T01:21:06;17.98;;;8.10;;
69381;SDS011;56560;50.692;12.844;2023-04-22T01:23:32;18.80;;;7.60;;
69381;SDS011;56560;50.692;12.844;2023-04-22T01:25:58;19.33;;;8.77;;
69381;SDS011;56560;50.692;12.844;2023-04-22T01:28:24;18.53;;;8.20;;
69381;SDS011;56560;50.692;12.844;2023-04-22T01:30:50;18.38;;;7.93;;
69381;SDS011;56560;50.692;12.844;2023-04-22T01:33:16;20.05;;;7.95;;
69381;SDS011;56560;50.692;12.844;2023-04-22T01:35:42;17.15;;;8.00;;
69381;SDS011;56560;50.692;12.844;2023-04-22T01:38:09;19.13;;;7.60;;
69381;SDS011;56560;50.692;12.844;2023-04-22T01:40:35;20.25;;;7.65;;
69381;SDS011;56560;50.692;12.844;2023-04-22T01:43:02;15.63;;;6.97;;
69381;SDS011;56560;50.692;12.844;2023-04-22T01:45:28;18.27;;;7.30;;
69381;SDS011;56560;50.692;12.844;2023-04-22T01:47:53;15.40;;;6.10;;
69381;SDS011;56560;50.692;12.844;2023-04-22T01:50:20;20.97;;;6.57;;
69381;SDS011;56560;50.692;12.844;2023-04-22T01:52:46;14.00;;;6.88;;
69381;SDS011;56560;50.692;12.844;2023-04-22T01:55:12;15.15;;;6.78;;
69381;SDS011;56560;50.692;12.844;2023-04-22T01:57:37;15.83;;;7.00;;
69381;SDS011;56560;50.692;12.844;2023-04-22T02:00:03;17.40;;;6.90;;
69381;SDS011;56560;50.692;12.844;2023-04-22T02:02:30;14.43;;;6.70;;
69381;SDS011;56560;50.692;12.844;2023-04-22T02:04:56;18.10;;;6.60;;
69381;SDS011;56560;50.692;12.844;2023-04-22T02:07:21;15.05;;;6.43;;
69381;SDS011;56560;50.692;12.844;2023-04-22T02:09:48;14.73;;;5.72;;
69381;SDS011;56560;50.692;12.844;2023-04-22T02:12:14;13.75;;;6.40;;
69381;SDS011;56560;50.692;12.844;2023-04-22T02:14:40;16.97;;;6.30;;
69381;SDS011;56560;50.692;12.844;2023-04-22T02:17:05;13.02;;;5.93;;
69381;SDS011;56560;50.692;12.844;2023-04-22T02:19:31;13.67;;;6.73;;
69381;SDS011;56560;50.692;12.844;2023-04-22T02:21:57;15.20;;;5.78;;
69381;SDS011;56560;50.692;12.844;2023-04-22T02:24:23;17.70;;;6.33;;
69381;SDS011;56560;50.692;12.844;2023-04-22T02:26:49;18.25;;;6.55;;
69381;SDS011;56560;50.692;12.844;2023-04-22T02:29:15;15.65;;;6.10;;
69381;SDS011;56560;50.692;12.844;2023-04-22T02:31:41;12.23;;;5.40;;
69381;SDS011;56560;50.692;12.844;2023-04-22T02:34:06;13.02;;;6.10;;
69381;SDS011;56560;50.692;12.844;2023-04-22T02:36:32;15.13;;;6.33;;
69381;SDS011;56560;50.692;12.844;2023-04-22T02:38:59;13.98;;;5.95;;
69381;SDS011;56560;50.692;12.844;2023-04-22T02:41:28;13.52;;;6.05;;
69381;SDS011;56560;50.692;12.844;2023-04-22T02:43:54;16.75;;;6.20;;
69381;SDS011;56560;50.692;12.844;2023-04-22T02:46:20;14.57;;;5.70;;
69381;SDS011;56560;50.692;12.844;2023-04-22T02:48:45;15.10;;;5.80;;
69381;SDS011;56560;50.692;12.844;2023-04-22T02:51:11;13.80;;;6.03;;
69381;SDS011;56560;50.692;12.844;2023-04-22T02:53:37;14.57;;;6.33;;
69381;SDS011;56560;50.692;12.844;2023-04-22T02:56:02;15.30;;;5.70;;
69381;SDS011;56560;50.692;12.844;2023-04-22T02:58:29;14.60;;;6.00;;
69381;SDS011;56560;50.692;12.844;2023-04-22T03:00:55;16.35;;;5.20;;
69381;SDS011;56560;50.692;12.844;2023-04-22T03:03:21;15.90;;;5.60;;
69381;SDS011;56560;50.692;12.844;2023-04-22T03:05:47;17.60;;;5.47;;
69381;SDS011;56560;50.692;12.844;2023-04-22T03:08:13;14.60;;;5.57;;
69381;SDS011;56560;50.692;12.844;2023-04-22T03:10:39;15.40;;;5.60;;
69381;SDS011;56560;50.692;12.844;2023-04-22T03:13:04;11.63;;;5.32;;
69381;SDS011;56560;50.692;12.844;2023-04-22T03:15:30;13.27;;;5.33;;
69381;SDS011;56560;50.692;12.844;2023-04-22T03:17:56;15.40;;;5.10;;
69381;SDS011;56560;50.692;12.844;2023-04-22T03:20:21;16.13;;;4.40;;
69381;SDS011;56560;50.692;12.844;2023-04-22T03:22:47;13.07;;;4.15;;
69381;SDS011;56560;50.692;12.844;2023-04-22T03:25:13;15.43;;;5.57;;
69381;SDS011;56560;50.692;12.844;2023-04-22T03:27:38;13.68;;;5.22;;
69381;SDS011;56560;50.692;12.844;2023-04-22T03:30:05;12.68;;;3.90;;
69381;SDS011;56560;50.692;12.844;2023-04-22T03:32:31;13.13;;;5.47;;
69381;SDS011;56560;50.692;12.844;2023-04-22T03:34:57;13.80;;;5.82;;
69381;SDS011;56560;50.692;12.844;2023-04-22T03:37:23;16.13;;;5.27;;
69381;SDS011;56560;50.692;12.844;2023-04-22T03:39:48;16.98;;;6.15;;
69381;SDS011;56560;50.692;12.844;2023-04-22T03:42:14;14.05;;;5.63;;
69381;SDS011;56560;50.692;12.844;2023-04-22T03:44:39;15.57;;;5.87;;
69381;SDS011;56560;50.692;12.844;2023-04-22T03:47:05;16.58;;;5.93;;
69381;SDS011;56560;50.692;12.844;2023-04-22T03:49:31;14.40;;;5.78;;
69381;SDS011;56560;50.692;12.844;2023-04-22T03:51:57;13.03;;;5.93;;
69381;SDS011;56560;50.692;12.844;2023-04-22T03:54:23;15.13;;;6.07;;
69381;SDS011;56560;50.692;12.844;2023-04-22T03:56:51;14.50;;;5.55;;
69381;SDS011;56560;50.692;12.844;2023-04-22T03:59:17;16.33;;;6.60;;
69381;SDS011;56560;50.692;12.844;2023-04-22T04:01:44;14.67;;;6.20;;
69381;SDS011;56560;50.692;12.844;2023-04-22T04:04:10;16.42;;;6.20;;
69381;SDS011;56560;50.692;12.844;2023-04-22T04:06:36;15.80;;;6.20;;
69381;SDS011;56560;50.692;12.844;2023-04-22T04:09:02;16.08;;;5.90;;
69381;SDS011;56560;50.692;12.844;2023-04-22T04:11:28;15.85;;;5.97;;
69381;SDS011;56560;50.692;12.844;2023-04-22T04:13:54;12.27;;;5.78;;
69381;SDS011;56560;50.692;12.844;2023-04-22T04:16:20;18.90;;;7.73;;
69381;SDS011;56560;50.692;12.844;2023-04-22T04:18:48;13.97;;;5.93;;
69381;SDS011;56560;50.692;12.844;2023-04-22T04:21:14;12.75;;;4.60;;
69381;SDS011;56560;50.692;12.844;2023-04-22T04:23:40;13.85;;;5.25;;
69381;SDS011;56560;50.692;12.844;2023-04-22T04:26:06;13.83;;;5.60;;
69381;SDS011;56560;50.692;12.844;2023-04-22T04:28:32;12.68;;;5.40;;
69381;SDS011;56560;50.692;12.844;2023-04-22T04:31:00;17.75;;;5.93;;
69381;SDS011;56560;50.692;12.844;2023-04-22T04:33:29;14.38;;;5.85;;
69381;SDS011;56560;50.692;12.844;2023-04-22T04:36:01;14.98;;;6.55;;
69381;SDS011;56560;50.692;12.844;2023-04-22T04:38:27;14.07;;;6.20;;
69381;SDS011;56560;50.692;12.844;2023-04-22T04:40:53;13.93;;;5.90;;
69381;SDS011;56560;50.692;12.844;2023-04-22T04:43:18;13.20;;;6.10;;
69381;SDS011;56560;50.692;12.844;2023-04-22T04:45:45;14.35;;;5.90;;
69381;SDS011;56560;50.692;12.844;2023-04-22T04:48:11;14.73;;;5.82;;
69381;SDS011;56560;50.692;12.844;2023-04-22T04:50:40;16.20;;;5.95;;
69381;SDS011;56560;50.692;12.844;2023-04-22T04:53:06;12.90;;;5.97;;
69381;SDS011;56560;50.692;12.844;2023-04-22T04:55:32;16.58;;;6.18;;
69381;SDS011;56560;50.692;12.844;2023-04-22T04:57:58;12.88;;;5.45;;
69381;SDS011;56560;50.692;12.844;2023-04-22T05:00:23;15.13;;;5.73;;
69381;SDS011;56560;50.692;12.844;2023-04-22T05:02:49;13.82;;;6.00;;
69381;SDS011;56560;50.692;12.844;2023-04-22T05:05:15;15.13;;;5.67;;
69381;SDS011;56560;50.692;12.844;2023-04-22T05:07:41;14.73;;;6.15;;
69381;SDS011;56560;50.692;12.844;2023-04-22T05:10:06;17.23;;;5.67;;
69381;SDS011;56560;50.692;12.844;2023-04-22T05:12:32;15.25;;;5.85;;
69381;SDS011;56560;50.692;12.844;2023-04-22T05:14:58;13.87;;;5.90;;
69381;SDS011;56560;50.692;12.844;2023-04-22T05:17:23;16.00;;;5.97;;
69381;SDS011;56560;50.692;12.844;2023-04-22T05:19:49;14.63;;;5.23;;
69381;SDS011;56560;50.692;12.844;2023-04-22T05:22:15;15.00;;;5.80;;
69381;SDS011;56560;50.692;12.844;2023-04-22T05:24:41;13.02;;;5.72;;
69381;SDS011;56560;50.692;12.844;2023-04-22T05:27:07;12.77;;;5.68;;
69381;SDS011;56560;50.692;12.844;2023-04-22T05:29:33;13.03;;;6.13;;
69381;SDS011;56560;50.692;12.844;2023-04-22T05:31:59;18.15;;;5.38;;
69381;SDS011;56560;50.692;12.844;2023-04-22T05:34:25;16.60;;;6.43;;
69381;SDS011;56560;50.692;12.844;2023-04-22T05:36:50;14.10;;;5.40;;
69381;SDS011;56560;50.692;12.844;2023-04-22T05:39:16;13.48;;;5.63;;
69381;SDS011;56560;50.692;12.844;2023-04-22T05:41:42;13.83;;;5.63;;
69381;SDS011;56560;50.692;12.844;2023-04-22T05:44:08;12.38;;;5.28;;
69381;SDS011;56560;50.692;12.844;2023-04-22T05:46:34;15.07;;;6.30;;
69381;SDS011;56560;50.692;12.844;2023-04-22T05:48:59;14.25;;;5.65;;
69381;SDS011;56560;50.692;12.844;2023-04-22T05:51:26;13.15;;;5.57;;
69381;SDS011;56560;50.692;12.844;2023-04-22T05:53:51;12.37;;;5.77;;
69381;SDS011;56560;50.692;12.844;2023-04-22T05:56:17;13.70;;;5.72;;
69381;SDS011;56560;50.692;12.844;2023-04-22T05:58:45;12.47;;;5.70;;
69381;SDS011;56560;50.692;12.844;2023-04-22T06:01:10;12.23;;;5.10;;
69381;SDS011;56560;50.692;12.844;2023-04-22T06:03:36;13.27;;;5.60;;
69381;SDS011;56560;50.692;12.844;2023-04-22T06:06:02;11.98;;;5.57;;
69381;SDS011;56560;50.692;12.844;2023-04-22T06:08:28;12.33;;;5.53;;
69381;SDS011;56560;50.692;12.844;2023-04-22T06:10:58;13.50;;;5.97;;
69381;SDS011;56560;50.692;12.844;2023-04-22T06:13:24;11.93;;;5.10;;
69381;SDS011;56560;50.692;12.844;2023-04-22T06:15:50;12.68;;;5.65;;
69381;SDS011;56560;50.692;12.844;2023-04-22T06:18:16;14.40;;;6.00;;
69381;SDS011;56560;50.692;12.844;2023-04-22T06:20:41;12.32;;;5.47;;
69381;SDS011;56560;50.692;12.844;2023-04-22T06:23:07;13.13;;;5.30;;
69381;SDS011;56560;50.692;12.844;2023-04-22T06:25:36;13.93;;;4.60;;
69381;SDS011;56560;50.692;12.844;2023-04-22T06:28:01;13.10;;;5.40;;
69381;SDS011;56560;50.692;12.844;2023-04-22T06:30:27;11.48;;;4.20;;
69381;SDS011;56560;50.692;12.844;2023-04-22T06:32:52;11.43;;;4.63;;
69381;SDS011;56560;50.692;12.844;2023-04-22T06:35:19;11.00;;;4.10;;
69381;SDS011;56560;50.692;12.844;2023-04-22T06:37:46;11.63;;;4.32;;
69381;SDS011;56560;50.692;12.844;2023-04-22T06:40:12;11.70;;;4.43;;
69381;SDS011;56560;50.692;12.844;2023-04-22T06:42:38;9.77;;;3.97;;
69381;SDS011;56560;50.692;12.844;2023-04-22T06:45:04;12.35;;;4.55;;
69381;SDS011;56560;50.692;12.844;2023-04-22T06:47:30;10.43;;;5.07;;
69381;SDS011;56560;50.692;12.844;2023-04-22T06:49:56;13.13;;;4.40;;
69381;SDS011;56560;50.692;12.844;2023-04-22T06:52:21;13.53;;;4.63;;
69381;SDS011;56560;50.692;12.844;2023-04-22T06:54:47;11.82;;;4.47;;
69381;SDS011;56560;50.692;12.844;2023-04-22T06:57:13;11.23;;;4.13;;
69381;SDS011;56560;50.692;12.844;2023-04-22T06:59:38;11.45;;;4.88;;
69381;SDS011;56560;50.692;12.844;2023-04-22T07:02:04;9.97;;;4.17;;
69381;SDS011;56560;50.692;12.844;2023-04-22T07:04:30;10.40;;;4.00;;
69381;SDS011;56560;50.692;12.844;2023-04-22T07:06:55;10.27;;;4.18;;
69381;SDS011;56560;50.692;12.844;2023-04-22T07:09:22;12.07;;;5.00;;
69381;SDS011;56560;50.692;12.844;2023-04-22T07:11:47;10.17;;;3.50;;
69381;SDS011;56560;50.692;12.844;2023-04-22T07:14:13;11.27;;;4.05;;
69381;SDS011;56560;50.692;12.844;2023-04-22T07:16:39;11.93;;;5.20;;
69381;SDS011;56560;50.692;12.844;2023-04-22T07:19:04;16.70;;;5.18;;
69381;SDS011;56560;50.692;12.844;2023-04-22T07:21:30;12.68;;;4.40;;
69381;SDS011;56560;50.692;12.844;2023-04-22T07:23:56;9.73;;;3.83;;
69381;SDS011;56560;50.692;12.844;2023-04-22T07:26:22;14.43;;;5.30;;
69381;SDS011;56560;50.692;12.844;2023-04-22T07:28:48;11.30;;;4.68;;
69381;SDS011;56560;50.692;12.844;2023-04-22T07:31:14;11.93;;;5.00;;
69381;SDS011;56560;50.692;12.844;2023-04-22T07:33:40;14.60;;;5.30;;
69381;SDS011;56560;50.692;12.844;2023-04-22T07:36:05;13.38;;;5.13;;
69381;SDS011;56560;50.692;12.844;2023-04-22T07:38:31;15.27;;;6.05;;
69381;SDS011;56560;50.692;12.844;2023-04-22T07:40:57;11.38;;;4.28;;
69381;SDS011;56560;50.692;12.844;2023-04-22T07:43:23;12.83;;;4.33;;
69381;SDS011;56560;50.692;12.844;2023-04-22T07:45:48;9.35;;;3.67;;
69381;SDS011;56560;50.692;12.844;2023-04-22T07:48:15;11.05;;;4.70;;
69381;SDS011;56560;50.692;12.844;2023-04-22T07:50:40;9.97;;;4.03;;
69381;SDS011;56560;50.692;12.844;2023-04-22T07:53:06;11.90;;;4.55;;
69381;SDS011;56560;50.692;12.844;2023-04-22T07:55:34;12.93;;;4.60;;
69381;SDS011;56560;50.692;12.844;2023-04-22T07:57:59;12.27;;;5.00;;
69381;SDS011;56560;50.692;12.844;2023-04-22T08:00:30;12.25;;;4.55;;
69381;SDS011;56560;50.692;12.844;2023-04-22T08:02:56;13.10;;;4.72;;
69381;SDS011;56560;50.692;12.844;2023-04-22T08:05:22;11.40;;;4.60;;
69381;SDS011;56560;50.692;12.844;2023-04-22T08:07:47;11.53;;;4.77;;
69381;SDS011;56560;50.692;12.844;2023-04-22T08:10:13;9.65;;;4.50;;
69381;SDS011;56560;50.692;12.844;2023-04-22T08:12:38;12.37;;;4.50;;
69381;SDS011;56560;50.692;12.844;2023-04-22T08:15:04;12.90;;;4.43;;
69381;SDS011;56560;50.692;12.844;2023-04-22T08:17:30;12.77;;;4.50;;
69381;SDS011;56560;50.692;12.844;2023-04-22T08:19:56;10.90;;;4.38;;
69381;SDS011;56560;50.692;12.844;2023-04-22T08:22:22;12.70;;;4.37;;
69381;SDS011;56560;50.692;12.844;2023-04-22T08:24:48;11.65;;;4.43;;
69381;SDS011;56560;50.692;12.844;2023-04-22T08:27:13;12.05;;;4.38;;
69381;SDS011;56560;50.692;12.844;2023-04-22T08:29:39;10.50;;;4.80;;
69381;SDS011;56560;50.692;12.844;2023-04-22T08:32:05;11.30;;;4.25;;
69381;SDS011;56560;50.692;12.844;2023-04-22T08:34:30;10.27;;;3.97;;
69381;SDS011;56560;50.692;12.844;2023-04-22T08:36:56;9.77;;;4.70;;
69381;SDS011;56560;50.692;12.844;2023-04-22T08:39:22;12.18;;;4.40;;
69381;SDS011;56560;50.692;12.844;2023-04-22T08:41:48;13.33;;;5.30;;
69381;SDS011;56560;50.692;12.844;2023-04-22T08:44:14;12.70;;;4.47;;
69381;SDS011;56560;50.692;12.844;2023-04-22T08:46:42;10.70;;;4.13;;
69381;SDS011;56560;50.692;12.844;2023-04-22T08:49:11;11.23;;;5.10;;
69381;SDS011;56560;50.692;12.844;2023-04-22T08:51:39;10.30;;;4.90;;
69381;SDS011;56560;50.692;12.844;2023-04-22T08:54:06;10.90;;;4.57;;
69381;SDS011;56560;50.692;12.844;2023-04-22T08:56:31;12.65;;;4.78;;
69381;SDS011;56560;50.692;12.844;2023-04-22T08:59:04;13.27;;;4.80;;
69381;SDS011;56560;50.692;12.844;2023-04-22T09:01:33;11.57;;;4.50;;
69381;SDS011;56560;50.692;12.844;2023-04-22T09:04:00;10.82;;;4.57;;
69381;SDS011;56560;50.692;12.844;2023-04-22T09:06:26;14.23;;;4.97;;
69381;SDS011;56560;50.692;12.844;2023-04-22T09:08:52;10.57;;;4.57;;
69381;SDS011;56560;50.692;12.844;2023-04-22T09:11:19;14.55;;;4.55;;
69381;SDS011;56560;50.692;12.844;2023-04-22T09:13:45;12.82;;;4.90;;
69381;SDS011;56560;50.692;12.844;2023-04-22T09:16:11;12.20;;;4.72;;
69381;SDS011;56560;50.692;12.844;2023-04-22T09:18:43;11.80;;;4.53;;
69381;SDS011;56560;50.692;12.844;2023-04-22T09:21:11;13.20;;;4.80;;
69381;SDS011;56560;50.692;12.844;2023-04-22T09:23:48;10.65;;;4.10;;
69381;SDS011;56560;50.692;12.844;2023-04-22T09:26:19;15.75;;;5.10;;
69381;SDS011;56560;50.692;12.844;2023-04-22T09:28:50;13.40;;;5.30;;
69381;SDS011;56560;50.692;12.844;2023-04-22T09:31:20;11.32;;;4.65;;
69381;SDS011;56560;50.692;12.844;2023-04-22T09:33:50;13.65;;;4.70;;
69381;SDS011;56560;50.692;12.844;2023-04-22T09:36:21;15.15;;;5.18;;
69381;SDS011;56560;50.692;12.844;2023-04-22T09:38:55;9.85;;;3.97;;
69381;SDS011;56560;50.692;12.844;2023-04-22T09:41:26;10.90;;;4.60;;
69381;SDS011;56560;50.692;12.844;2023-04-22T09:43:55;11.00;;;4.57;;
69381;SDS011;56560;50.692;12.844;2023-04-22T09:46:22;11.80;;;4.40;;
69381;SDS011;56560;50.692;12.844;2023-04-22T09:48:50;11.45;;;4.38;;
69381;SDS011;56560;50.692;12.844;2023-04-22T09:51:18;10.67;;;4.60;;
69381;SDS011;56560;50.692;12.844;2023-04-22T09:53:44;10.88;;;4.45;;
69381;SDS011;56560;50.692;12.844;2023-04-22T09:56:20;10.38;;;4.70;;
69381;SDS011;56560;50.692;12.844;2023-04-22T09:58:50;9.80;;;4.20;;
69381;SDS011;56560;50.692;12.844;2023-04-22T10:01:17;17.63;;;4.70;;
69381;SDS011;56560;50.692;12.844;2023-04-22T10:03:43;12.95;;;4.80;;
69381;SDS011;56560;50.692;12.844;2023-04-22T10:06:09;10.30;;;4.70;;
69381;SDS011;56560;50.692;12.844;2023-04-22T10:08:36;11.63;;;4.50;;
69381;SDS011;56560;50.692;12.844;2023-04-22T10:11:02;11.48;;;4.30;;
69381;SDS011;56560;50.692;12.844;2023-04-22T10:13:27;10.93;;;4.47;;
69381;SDS011;56560;50.692;12.844;2023-04-22T10:15:54;12.07;;;4.80;;
69381;SDS011;56560;50.692;12.844;2023-04-22T10:18:22;10.95;;;4.70;;
69381;SDS011;56560;50.692;12.844;2023-04-22T10:20:49;11.00;;;4.80;;
69381;SDS011;56560;50.692;12.844;2023-04-22T10:23:18;11.40;;;4.80;;
69381;SDS011;56560;50.692;12.844;2023-04-22T10:25:48;12.27;;;7.20;;
69381;SDS011;56560;50.692;12.844;2023-04-22T10:28:17;12.77;;;5.05;;
69381;SDS011;56560;50.692;12.844;2023-04-22T10:30:46;11.00;;;4.90;;
69381;SDS011;56560;50.692;12.844;2023-04-22T10:36:07;10.07;;;4.28;;
69381;SDS011;56560;50.692;12.844;2023-04-22T10:38:34;10.55;;;3.97;;
69381;SDS011;56560;50.692;12.844;2023-04-22T10:41:04;12.02;;;4.35;;
69381;SDS011;56560;50.692;12.844;2023-04-22T10:43:43;10.37;;;4.80;;
69381;SDS011;56560;50.692;12.844;2023-04-22T10:48:58;14.70;;;4.47;;
69381;SDS011;56560;50.692;12.844;2023-04-22T10:52:05;12.50;;;5.78;;
69381;SDS011;56560;50.692;12.844;2023-04-22T10:59:30;10.77;;;4.25;;
69381;SDS011;56560;50.692;12.844;2023-04-22T11:02:00;10.30;;;4.25;;
69381;SDS011;56560;50.692;12.844;2023-04-22T11:04:26;8.88;;;3.97;;
69381;SDS011;56560;50.692;12.844;2023-04-22T11:15:08;9.90;;;4.10;;
69381;SDS011;56560;50.692;12.844;2023-04-22T11:17:35;10.93;;;4.22;;
69381;SDS011;56560;50.692;12.844;2023-04-22T11:20:02;9.57;;;4.10;;
69381;SDS011;56560;50.692;12.844;2023-04-22T11:22:36;9.88;;;4.45;;
69381;SDS011;56560;50.692;12.844;2023-04-22T11:25:04;12.25;;;5.80;;
69381;SDS011;56560;50.692;12.844;2023-04-22T11:27:30;13.70;;;5.60;;
69381;SDS011;56560;50.692;12.844;2023-04-22T11:30:06;12.30;;;5.03;;
69381;SDS011;56560;50.692;12.844;2023-04-22T11:32:35;15.15;;;4.88;;
69381;SDS011;56560;50.692;12.844;2023-04-22T11:35:03;10.77;;;4.45;;
69381;SDS011;56560;50.692;12.844;2023-04-22T11:37:40;12.23;;;4.70;;
69381;SDS011;56560;50.692;12.844;2023-04-22T11:40:09;9.97;;;4.20;;
69381;SDS011;56560;50.692;12.844;2023-04-22T11:42:36;10.93;;;5.20;;
69381;SDS011;56560;50.692;12.844;2023-04-22T11:45:02;13.20;;;5.25;;
69381;SDS011;56560;50.692;12.844;2023-04-22T11:47:29;13.80;;;5.35;;
69381;SDS011;56560;50.692;12.844;2023-04-22T11:52:23;9.60;;;4.70;;
69381;SDS011;56560;50.692;12.844;2023-04-22T11:54:50;12.38;;;5.20;;
69381;SDS011;56560;50.692;12.844;2023-04-22T11:57:16;12.30;;;5.50;;
69381;SDS011;56560;50.692;12.844;2023-04-22T11:59:42;10.25;;;5.20;;
69381;SDS011;56560;50.692;12.844;2023-04-22T12:02:08;12.03;;;5.00;;
69381;SDS011;56560;50.692;12.844;2023-04-22T12:04:35;12.30;;;5.00;;
69381;SDS011;56560;50.692;12.844;2023-04-22T12:07:04;15.10;;;6.18;;
69381;SDS011;56560;50.692;12.844;2023-04-22T12:09:30;10.82;;;4.97;;
69381;SDS011;56560;50.692;12.844;2023-04-22T12:11:55;14.80;;;5.20;;
69381;SDS011;56560;50.692;12.844;2023-04-22T12:14:27;9.93;;;5.10;;
69381;SDS011;56560;50.692;12.844;2023-04-22T12:16:56;12.60;;;6.00;;
69381;SDS011;56560;50.692;12.844;2023-04-22T12:19:25;12.30;;;5.10;;
69381;SDS011;56560;50.692;12.844;2023-04-22T12:22:00;10.38;;;5.18;;
69381;SDS011;56560;50.692;12.844;2023-04-22T12:24:26;14.37;;;6.27;;
69381;SDS011;56560;50.692;12.844;2023-04-22T12:26:53;10.27;;;4.97;;
69381;SDS011;56560;50.692;12.844;2023-04-22T12:29:25;10.00;;;5.32;;
69381;SDS011;56560;50.692;12.844;2023-04-22T12:31:52;11.05;;;5.18;;
69381;SDS011;56560;50.692;12.844;2023-04-22T12:34:17;12.17;;;4.90;;
69381;SDS011;56560;50.692;12.844;2023-04-22T12:36:43;12.52;;;5.65;;
69381;SDS011;56560;50.692;12.844;2023-04-22T12:39:08;11.80;;;4.70;;
69381;SDS011;56560;50.692;12.844;2023-04-22T12:41:34;9.90;;;4.97;;
69381;SDS011;56560;50.692;12.844;2023-04-22T12:44:00;12.50;;;5.00;;
69381;SDS011;56560;50.692;12.844;2023-04-22T12:46:25;9.67;;;5.10;;
69381;SDS011;56560;50.692;12.844;2023-04-22T12:48:51;10.75;;;5.22;;
69381;SDS011;56560;50.692;12.844;2023-04-22T12:51:17;11.67;;;5.40;;
69381;SDS011;56560;50.692;12.844;2023-04-22T12:53:42;13.15;;;5.65;;
69381;SDS011;56560;50.692;12.844;2023-04-22T12:56:08;10.30;;;4.47;;
69381;SDS011;56560;50.692;12.844;2023-04-22T12:58:34;10.32;;;4.28;;
69381;SDS011;56560;50.692;12.844;2023-04-22T13:00:59;10.67;;;3.70;;
69381;SDS011;56560;50.692;12.844;2023-04-22T13:03:25;9.10;;;4.40;;
69381;SDS011;56560;50.692;12.844;2023-04-22T13:05:51;8.98;;;3.75;;
69381;SDS011;56560;50.692;12.844;2023-04-22T13:08:16;9.88;;;4.18;;
69381;SDS011;56560;50.692;12.844;2023-04-22T13:10:42;9.30;;;3.33;;
69381;SDS011;56560;50.692;12.844;2023-04-22T13:13:08;9.80;;;3.85;;
69381;SDS011;56560;50.692;12.844;2023-04-22T13:15:33;10.03;;;3.80;;
69381;SDS011;56560;50.692;12.844;2023-04-22T13:18:00;8.77;;;3.17;;
69381;SDS011;56560;50.692;12.844;2023-04-22T13:20:26;7.77;;;3.13;;
69381;SDS011;56560;50.692;12.844;2023-04-22T13:22:51;8.07;;;3.20;;
69381;SDS011;56560;50.692;12.844;2023-04-22T13:25:17;7.53;;;3.10;;
69381;SDS011;56560;50.692;12.844;2023-04-22T13:27:43;7.32;;;3.33;;
69381;SDS011;56560;50.692;12.844;2023-04-22T13:30:09;7.13;;;3.10;;
69381;SDS011;56560;50.692;12.844;2023-04-22T13:32:35;8.63;;;4.25;;
69381;SDS011;56560;50.692;12.844;2023-04-22T13:35:02;8.05;;;3.22;;
69381;SDS011;56560;50.692;12.844;2023-04-22T13:37:28;8.30;;;3.28;;
69381;SDS011;56560;50.692;12.844;2023-04-22T13:39:54;8.23;;;3.13;;
69381;SDS011;56560;50.692;12.844;2023-04-22T13:42:20;9.57;;;3.00;;
69381;SDS011;56560;50.692;12.844;2023-04-22T13:44:45;7.60;;;3.00;;
69381;SDS011;56560;50.692;12.844;2023-04-22T13:47:11;6.70;;;2.90;;
69381;SDS011;56560;50.692;12.844;2023-04-22T13:49:37;10.00;;;3.60;;
69381;SDS011;56560;50.692;12.844;2023-04-22T13:52:02;13.40;;;3.80;;
69381;SDS011;56560;50.692;12.844;2023-04-22T13:54:28;11.30;;;5.47;;
69381;SDS011;56560;50.692;12.844;2023-04-22T13:56:55;8.73;;;3.38;;
69381;SDS011;56560;50.692;12.844;2023-04-22T13:59:20;6.80;;;3.07;;
69381;SDS011;56560;50.692;12.844;2023-04-22T14:01:46;9.40;;;3.90;;
69381;SDS011;56560;50.692;12.844;2023-04-22T14:04:11;8.25;;;2.90;;
69381;SDS011;56560;50.692;12.844;2023-04-22T14:06:37;8.23;;;3.17;;
69381;SDS011;56560;50.692;12.844;2023-04-22T14:09:03;7.43;;;3.15;;
69381;SDS011;56560;50.692;12.844;2023-04-22T14:11:29;7.73;;;3.00;;
69381;SDS011;56560;50.692;12.844;2023-04-22T14:13:55;9.02;;;4.00;;
69381;SDS011;56560;50.692;12.844;2023-04-22T14:16:21;9.02;;;3.28;;
69381;SDS011;56560;50.692;12.844;2023-04-22T14:18:46;5.73;;;2.70;;
69381;SDS011;56560;50.692;12.844;2023-04-22T14:21:12;9.23;;;3.15;;
69381;SDS011;56560;50.692;12.844;2023-04-22T14:23:38;7.88;;;3.15;;
69381;SDS011;56560;50.692;12.844;2023-04-22T14:26:06;6.23;;;2.83;;
69381;SDS011;56560;50.692;12.844;2023-04-22T14:28:34;8.93;;;3.40;;
69381;SDS011;56560;50.692;12.844;2023-04-22T14:31:00;6.13;;;2.90;;
69381;SDS011;56560;50.692;12.844;2023-04-22T14:33:26;8.57;;;3.67;;
69381;SDS011;56560;50.692;12.844;2023-04-22T14:35:52;8.53;;;3.80;;
69381;SDS011;56560;50.692;12.844;2023-04-22T14:38:19;7.85;;;3.35;;
69381;SDS011;56560;50.692;12.844;2023-04-22T14:40:45;7.35;;;3.10;;